Terminal Aerodrome Forecast
Issued by NWS

Home | Current Version | Previous Version | Text Only | Print | Product List | Glossary On
Versions: 1 2 3 4 5 6 7 8 9 10 11 12 13 14 15
788
FTUS42 KTAE 231120
TAFABY
TAF
KABY 231120Z 2312/2412 03003KT P6SM OVC020
     FM231800 06005KT P6SM SCT030 BKN060
     FM240000 01005KT P6SM FEW250=

USA.gov is the U.S. government's official web portal to all federal, state and local government web resources and services.